Time;durP1;ratioP1;P1;durP2;ratioP2;P2;SDS_P1;SDS_P2;PMS_P1;PMS_P2;Temp;Humidity;BMP_temperature;BMP_pressure;BME280_temperature;BME280_humidity;BME280_pressure;Samples;Min_cycle;Max_cycle;Signal;HPM_P1;HPM_P2
2023/08/01 00:01:42;;;;;;;0.57;0.55;;;;;;;17.59;71.29;98988.03;5094087;28;20046;-63
2023/08/01 00:04:11;;;;;;;0.50;0.50;;;;;;;17.64;71.27;98998.97;5093943;28;20047;-64
2023/08/01 00:06:41;;;;;;;0.63;0.63;;;;;;;17.62;71.61;98991.31;5094145;28;20393;-64
2023/08/01 00:09:10;;;;;;;0.60;0.60;;;;;;;17.65;71.33;98998.94;5094154;28;20048;-64
2023/08/01 00:11:39;;;;;;;0.70;0.70;;;;;;;17.64;71.24;98991.25;5093986;28;20040;-64
2023/08/01 00:14:08;;;;;;;1.30;1.23;;;;;;;17.64;71.66;98993.81;5092836;28;20040;-64
2023/08/01 00:16:37;;;;;;;0.50;0.50;;;;;;;17.60;71.18;98987.97;5093981;28;20050;-64
2023/08/01 00:19:06;;;;;;;0.43;0.43;;;;;;;17.52;71.16;98976.25;5093886;28;20036;-64
2023/08/01 00:21:35;;;;;;;0.43;0.43;;;;;;;17.45;71.61;98960.16;5093865;28;20046;-64
2023/08/01 00:24:08;;;;;;;0.60;0.60;;;;;;;17.41;71.53;98959.44;5093926;28;20474;-63
2023/08/01 00:26:37;;;;;;;0.60;0.52;;;;;;;17.39;71.65;98958.69;5093840;28;20539;-63
2023/08/01 00:29:06;;;;;;;1.67;1.05;;;;;;;17.30;72.49;98963.31;5093730;28;20044;-63
2023/08/01 00:31:35;;;;;;;0.60;0.60;;;;;;;17.38;72.60;98949.25;5092538;28;20123;-63
2023/08/01 00:34:04;;;;;;;0.70;0.70;;;;;;;17.42;72.76;98952.53;5092181;28;20044;-64
2023/08/01 00:36:33;;;;;;;0.50;0.50;;;;;;;17.37;72.71;98955.28;5094029;28;20051;-64
2023/08/01 00:39:02;;;;;;;0.80;0.70;;;;;;;17.43;72.97;98955.06;5093630;28;20048;-64
2023/08/01 00:41:33;;;;;;;0.55;0.55;;;;;;;17.48;72.59;98952.28;5093966;28;20044;-64
2023/08/01 00:44:02;;;;;;;0.50;0.50;;;;;;;17.51;72.66;98941.00;5092579;28;20429;-64
2023/08/01 00:46:30;;;;;;;0.50;0.50;;;;;;;17.55;72.72;98943.44;5092391;28;20072;-64
2023/08/01 00:49:00;;;;;;;0.93;0.82;;;;;;;17.53;72.64;98944.41;5093853;28;20824;-63
2023/08/01 00:51:32;;;;;;;0.95;0.77;;;;;;;17.51;72.46;98933.28;5093493;28;20044;-63
2023/08/01 00:54:01;;;;;;;0.55;0.55;;;;;;;17.46;72.71;98917.97;5093474;28;20044;-62
2023/08/01 00:56:33;;;;;;;0.50;0.50;;;;;;;17.47;72.41;98924.00;5093841;28;20052;-63
2023/08/01 00:59:02;;;;;;;0.52;0.52;;;;;;;17.38;72.61;98920.88;5093781;28;20560;-63
2023/08/01 01:01:31;;;;;;;0.60;0.60;;;;;;;17.39;72.68;98922.56;5093436;28;20097;-63
2023/08/01 01:03:59;;;;;;;0.35;0.35;;;;;;;17.39;72.63;98917.41;5092502;28;20062;-64
2023/08/01 01:06:34;;;;;;;1.35;1.08;;;;;;;17.41;72.60;98910.44;5092195;28;20044;-64
2023/08/01 01:09:15;;;;;;;1.77;1.02;;;;;;;17.38;72.84;98909.69;5092494;28;20378;-64
2023/08/01 01:11:47;;;;;;;0.70;0.70;;;;;;;17.29;72.58;98905.75;5094253;28;20048;-64
2023/08/01 01:14:16;;;;;;;0.45;0.45;;;;;;;17.32;72.38;98904.81;5093648;28;20098;-64
2023/08/01 01:16:45;;;;;;;0.40;0.40;;;;;;;17.28;72.43;98904.06;5092471;28;20097;-64
2023/08/01 01:19:14;;;;;;;0.50;0.50;;;;;;;17.29;72.47;98903.19;5097537;28;20082;-64
2023/08/01 01:21:47;;;;;;;0.90;0.85;;;;;;;17.29;72.47;98900.59;5097228;28;20046;-64
2023/08/01 01:24:19;;;;;;;0.38;0.38;;;;;;;17.32;72.79;98890.13;5096012;28;20034;-64
2023/08/01 01:26:49;;;;;;;0.57;0.57;;;;;;;17.35;72.55;98884.88;5095955;28;20047;-64
2023/08/01 01:29:19;;;;;;;0.60;0.60;;;;;;;17.37;72.70;98875.31;5095857;28;20056;-63
2023/08/01 01:31:51;;;;;;;0.70;0.70;;;;;;;17.35;72.87;98868.53;5096480;28;20040;-62
2023/08/01 01:34:20;;;;;;;0.57;0.50;;;;;;;17.40;72.60;98869.19;5096659;28;20063;-63
2023/08/01 01:36:52;;;;;;;0.60;0.60;;;;;;;17.41;72.77;98874.31;5096955;28;20106;-64
2023/08/01 01:39:21;;;;;;;0.45;0.45;;;;;;;17.44;72.53;98874.16;5095640;28;20044;-63
2023/08/01 01:41:51;;;;;;;0.50;0.50;;;;;;;17.35;72.60;98869.38;5097114;28;20054;-64
2023/08/01 01:44:20;;;;;;;0.47;0.47;;;;;;;17.40;72.68;98862.31;5096629;28;20040;-64
2023/08/01 01:46:49;;;;;;;0.55;0.55;;;;;;;17.47;72.71;98867.22;5095793;28;20438;-64
2023/08/01 01:49:18;;;;;;;1.17;1.02;;;;;;;17.44;72.81;98871.59;5096630;28;20036;-62
2023/08/01 01:51:47;;;;;;;1.73;0.82;;;;;;;17.44;72.70;98856.09;5096598;28;20040;-64
2023/08/01 01:54:17;;;;;;;0.52;0.50;;;;;;;17.43;72.98;98845.84;5096899;28;20040;-62
2023/08/01 01:56:46;;;;;;;6.53;2.08;;;;;;;17.45;73.00;98844.06;5096794;28;20052;-62
2023/08/01 01:59:15;;;;;;;0.50;0.50;;;;;;;17.49;73.02;98844.78;5096451;28;20036;-64
2023/08/01 02:01:44;;;;;;;0.40;0.40;;;;;;;17.50;72.95;98836.13;5096927;28;20048;-63
2023/08/01 02:04:13;;;;;;;0.80;0.80;;;;;;;17.43;73.24;98841.53;5096593;28;20394;-64
2023/08/01 02:06:42;;;;;;;0.83;0.80;;;;;;;17.40;73.10;98833.94;5096653;28;20182;-63
2023/08/01 02:09:11;;;;;;;0.82;0.82;;;;;;;17.40;73.03;98841.66;5095115;28;20490;-62
2023/08/01 02:11:42;;;;;;;0.60;0.60;;;;;;;17.40;73.20;98836.50;5095048;28;20040;-63
2023/08/01 02:14:11;;;;;;;0.60;0.60;;;;;;;17.43;72.84;98836.38;5095338;28;20402;-63
2023/08/01 02:16:40;;;;;;;0.70;0.70;;;;;;;17.46;73.12;98835.41;5096523;28;20040;-63
2023/08/01 02:19:10;;;;;;;0.70;0.70;;;;;;;17.38;73.13;98830.56;5096114;28;20101;-64
2023/08/01 02:21:39;;;;;;;0.47;0.47;;;;;;;17.36;73.01;98832.38;5095174;28;20486;-64
2023/08/01 02:24:08;;;;;;;0.70;0.70;;;;;;;17.38;73.42;98825.41;5094791;28;20308;-63
2023/08/01 02:26:37;;;;;;;0.70;0.70;;;;;;;17.34;73.86;98823.03;5096256;28;20435;-64
2023/08/01 02:29:08;;;;;;;0.30;0.30;;;;;;;17.40;73.69;98823.59;5095647;28;20055;-64
2023/08/01 02:31:37;;;;;;;0.45;0.45;;;;;;;17.39;73.72;98818.53;5094644;28;20078;-64
2023/08/01 02:34:06;;;;;;;0.40;0.40;;;;;;;17.35;73.73;98822.13;5095832;28;20055;-64
2023/08/01 02:36:35;;;;;;;0.60;0.60;;;;;;;17.28;73.91;98816.38;5095076;28;20048;-63
2023/08/01 02:39:04;;;;;;;0.45;0.45;;;;;;;17.25;73.75;98806.19;5095774;28;20044;-64
2023/08/01 02:41:33;;;;;;;0.40;0.40;;;;;;;17.29;73.87;98796.59;5096258;28;20059;-64
2023/08/01 02:44:02;;;;;;;0.50;0.50;;;;;;;17.19;74.07;98801.28;5094337;28;20036;-63
2023/08/01 02:46:32;;;;;;;0.50;0.50;;;;;;;17.18;74.15;98803.94;5095791;28;20036;-62
2023/08/01 02:49:01;;;;;;;0.40;0.40;;;;;;;17.05;74.66;98803.59;5094356;28;20273;-62
2023/08/01 02:51:30;;;;;;;0.90;0.82;;;;;;;17.07;74.97;98801.81;5095843;28;20539;-62
2023/08/01 02:53:59;;;;;;;1.53;0.90;;;;;;;17.07;74.94;98796.66;5094223;28;20047;-63
2023/08/01 02:56:28;;;;;;;0.53;0.53;;;;;;;17.07;75.08;98799.22;5094146;28;20461;-63
2023/08/01 02:58:57;;;;;;;0.40;0.40;;;;;;;17.07;75.06;98800.94;5095309;28;20123;-64
2023/08/01 03:01:26;;;;;;;0.50;0.50;;;;;;;17.07;75.18;98794.06;5095263;28;20048;-64
2023/08/01 03:03:56;;;;;;;0.60;0.60;;;;;;;17.07;75.00;98791.50;5095144;28;20066;-64
2023/08/01 03:06:25;;;;;;;0.50;0.50;;;;;;;17.07;74.89;98780.31;5095802;28;20054;-64
2023/08/01 03:08:54;;;;;;;0.63;0.63;;;;;;;17.08;74.88;98776.84;5093948;28;20097;-63
2023/08/01 03:11:24;;;;;;;0.65;0.65;;;;;;;17.05;74.90;98775.25;5095112;28;20052;-64
2023/08/01 03:13:53;;;;;;;0.80;0.80;;;;;;;17.06;75.07;98779.47;5095130;28;20039;-64
2023/08/01 03:16:22;;;;;;;0.83;0.83;;;;;;;17.00;75.08;98769.44;5095290;28;20040;-64
2023/08/01 03:18:51;;;;;;;2.55;0.63;;;;;;;17.01;75.08;98780.59;5094898;28;20037;-64
2023/08/01 03:21:21;;;;;;;0.83;0.83;;;;;;;16.98;75.27;98781.56;5093734;28;20122;-64
2023/08/01 03:23:51;;;;;;;0.60;0.60;;;;;;;16.94;75.05;98781.75;5094837;28;20048;-64
2023/08/01 03:26:20;;;;;;;0.63;0.63;;;;;;;16.95;74.88;98786.84;5094925;28;20482;-64
2023/08/01 03:28:48;;;;;;;0.63;0.60;;;;;;;16.96;75.09;98778.22;5093729;28;20280;-63
2023/08/01 03:31:17;;;;;;;1.07;0.90;;;;;;;16.94;75.20;98785.13;5094682;28;20040;-63
2023/08/01 03:33:48;;;;;;;0.60;0.60;;;;;;;16.97;75.47;98782.44;5094391;28;20269;-64
2023/08/01 03:36:17;;;;;;;0.85;0.63;;;;;;;17.00;75.23;98779.75;5094709;28;20051;-63
2023/08/01 03:38:48;;;;;;;0.57;0.50;;;;;;;16.98;75.80;98780.72;5094952;28;20040;-63
2023/08/01 03:41:17;;;;;;;0.50;0.50;;;;;;;16.98;75.65;98781.56;5093852;28;20052;-63
2023/08/01 03:43:46;;;;;;;1.10;0.80;;;;;;;17.00;75.44;98777.16;5095040;28;20040;-63
2023/08/01 03:46:15;;;;;;;1.10;1.00;;;;;;;16.98;75.48;98771.25;5094323;28;20039;-63
2023/08/01 03:48:44;;;;;;;0.70;0.70;;;;;;;17.04;75.77;98780.44;5094681;28;20291;-63
2023/08/01 03:51:15;;;;;;;2.28;0.82;;;;;;;17.06;75.34;98774.31;5094665;28;20105;-64
2023/08/01 03:53:45;;;;;;;0.70;0.70;;;;;;;16.99;75.11;98765.16;5093932;28;20044;-63
2023/08/01 03:56:22;;;;;;;3.72;1.15;;;;;;;16.99;75.46;98782.41;5093028;28;20409;-63
2023/08/01 03:58:51;;;;;;;1.17;0.98;;;;;;;17.03;75.31;98779.63;5094231;28;20105;-64
2023/08/01 04:01:20;;;;;;;0.60;0.60;;;;;;;17.09;75.11;98781.94;5094168;28;20040;-64
2023/08/01 04:03:49;;;;;;;0.83;0.63;;;;;;;17.05;75.26;98788.13;5094446;28;20115;-64
2023/08/01 04:06:18;;;;;;;0.80;0.80;;;;;;;17.08;75.32;98782.88;5092839;28;20036;-64
2023/08/01 04:08:47;;;;;;;0.82;0.80;;;;;;;17.13;75.41;98791.22;5092834;28;20059;-63
2023/08/01 04:11:15;;;;;;;1.03;1.03;;;;;;;17.18;75.54;98798.78;5094391;28;20436;-64
2023/08/01 04:13:46;;;;;;;0.60;0.60;;;;;;;17.19;75.16;98790.13;5093985;28;20139;-64
2023/08/01 04:16:15;;;;;;;0.40;0.40;;;;;;;17.28;74.99;98785.44;5094287;28;20048;-64
2023/08/01 04:18:43;;;;;;;6.80;1.37;;;;;;;17.28;75.24;98785.44;5093890;28;20128;-62
2023/08/01 04:21:16;;;;;;;1.37;1.27;;;;;;;17.27;74.89;98788.94;5093881;28;20041;-63
2023/08/01 04:23:45;;;;;;;0.80;0.80;;;;;;;17.28;75.08;98789.75;5093904;28;20272;-62
2023/08/01 04:26:13;;;;;;;0.53;0.53;;;;;;;17.29;74.83;98794.00;5093831;28;20051;-63
2023/08/01 04:28:42;;;;;;;1.20;0.80;;;;;;;17.37;74.41;98795.34;5093833;28;20123;-63
2023/08/01 04:31:12;;;;;;;0.60;0.60;;;;;;;17.50;74.50;98795.69;5092842;28;20277;-63
2023/08/01 04:33:41;;;;;;;0.43;0.43;;;;;;;17.56;74.68;98784.28;5093544;28;20485;-63
2023/08/01 04:36:10;;;;;;;0.63;0.63;;;;;;;17.66;74.49;98790.75;5094146;28;20047;-63
2023/08/01 04:38:39;;;;;;;0.70;0.70;;;;;;;17.73;74.16;98792.97;5093613;28;20044;-63
2023/08/01 04:41:08;;;;;;;0.70;0.70;;;;;;;17.79;74.13;98791.88;5093871;28;20338;-64
2023/08/01 04:43:36;;;;;;;0.80;0.80;;;;;;;17.86;73.74;98798.44;5093638;28;20044;-64
2023/08/01 04:46:05;;;;;;;0.83;0.83;;;;;;;17.81;73.79;98795.22;5094089;28;20394;-63
2023/08/01 04:48:35;;;;;;;0.60;0.60;;;;;;;17.84;73.98;98774.44;5093905;28;20036;-63
2023/08/01 04:51:04;;;;;;;0.50;0.50;;;;;;;17.86;74.34;98782.94;5094474;28;20280;-63
2023/08/01 04:53:33;;;;;;;0.50;0.50;;;;;;;17.92;74.14;98788.66;5098066;28;20509;-63
2023/08/01 04:56:02;;;;;;;0.95;0.88;;;;;;;17.98;73.85;98790.13;5096449;28;20073;-63
2023/08/01 04:58:31;;;;;;;1.10;0.70;;;;;;;18.03;73.65;98795.94;5096509;28;20044;-64
2023/08/01 05:01:00;;;;;;;0.63;0.60;;;;;;;18.01;73.65;98797.75;5097892;28;20051;-64
2023/08/01 05:03:29;;;;;;;0.80;0.80;;;;;;;18.00;73.55;98785.75;5097632;28;20040;-63
2023/08/01 05:05:59;;;;;;;1.20;0.93;;;;;;;18.05;73.72;98781.22;5097761;28;20063;-63
2023/08/01 05:08:28;;;;;;;0.80;0.75;;;;;;;18.05;74.11;98786.38;5097546;28;20498;-65
2023/08/01 05:10:57;;;;;;;0.50;0.50;;;;;;;18.14;74.39;98782.56;5097364;28;20074;-63
2023/08/01 05:13:27;;;;;;;0.60;0.60;;;;;;;18.14;74.13;98779.97;5097681;28;20083;-64
2023/08/01 05:15:55;;;;;;;0.70;0.70;;;;;;;18.13;74.28;98786.88;5097376;28;20036;-64
2023/08/01 05:18:24;;;;;;;1.25;1.15;;;;;;;18.14;74.40;98783.38;5097920;28;20079;-63
2023/08/01 05:20:53;;;;;;;4.00;1.20;;;;;;;18.06;74.80;98786.31;5097307;28;20040;-62
2023/08/01 05:23:23;;;;;;;1.13;1.00;;;;;;;18.06;75.10;98785.47;5097369;28;20458;-63
2023/08/01 05:25:52;;;;;;;3.83;1.67;;;;;;;18.08;74.66;98796.56;5097647;28;20036;-63
2023/08/01 05:28:21;;;;;;;1.53;1.20;;;;;;;18.07;74.91;98792.31;5097123;28;20044;-64
2023/08/01 05:30:50;;;;;;;0.50;0.50;;;;;;;18.05;74.81;98788.94;5097142;28;20292;-63
2023/08/01 05:33:19;;;;;;;1.30;1.20;;;;;;;18.12;74.78;98785.19;5096904;28;20208;-63
2023/08/01 05:35:50;;;;;;;0.70;0.70;;;;;;;18.07;74.58;98771.63;5096808;28;20048;-64
2023/08/01 05:38:19;;;;;;;0.43;0.43;;;;;;;18.07;74.71;98766.47;5096299;28;20048;-64
2023/08/01 05:40:49;;;;;;;0.67;0.67;;;;;;;18.13;74.55;98779.13;5096772;28;20051;-64
2023/08/01 05:43:18;;;;;;;0.55;0.55;;;;;;;18.17;74.34;98783.22;5096801;28;20509;-64
2023/08/01 05:45:47;;;;;;;0.60;0.60;;;;;;;18.20;74.51;98777.94;5096658;28;20051;-63
2023/08/01 05:48:18;;;;;;;3.30;0.88;;;;;;;18.23;74.45;98782.97;5096727;28;20337;-63
2023/08/01 05:50:47;;;;;;;0.77;0.77;;;;;;;18.29;74.02;98777.50;5096636;28;20051;-63
2023/08/01 05:53:16;;;;;;;1.15;0.85;;;;;;;18.35;74.06;98772.06;5096507;28;20037;-62
2023/08/01 05:55:44;;;;;;;0.50;0.50;;;;;;;18.38;74.00;98760.75;5096578;28;20050;-63
2023/08/01 05:58:15;;;;;;;1.10;0.88;;;;;;;18.34;74.49;98766.94;5096565;28;20394;-63
2023/08/01 06:00:44;;;;;;;0.60;0.60;;;;;;;18.34;74.06;98760.03;5096797;28;20050;-63
2023/08/01 06:03:12;;;;;;;0.90;0.90;;;;;;;18.39;74.34;98760.66;5095681;28;20394;-63
2023/08/01 06:05:41;;;;;;;0.55;0.55;;;;;;;18.41;74.56;98766.59;5096580;28;20033;-63
2023/08/01 06:08:10;;;;;;;0.60;0.60;;;;;;;18.39;74.58;98763.25;5096453;28;20064;-63
2023/08/01 06:10:39;;;;;;;0.68;0.68;;;;;;;18.37;74.19;98757.31;5096307;28;20393;-63
2023/08/01 06:13:08;;;;;;;0.50;0.50;;;;;;;18.44;74.18;98760.44;5096152;28;20089;-63
2023/08/01 06:15:39;;;;;;;1.85;1.48;;;;;;;18.44;74.28;98757.88;5096503;28;20394;-63
2023/08/01 06:18:07;;;;;;;0.68;0.68;;;;;;;18.46;74.07;98754.34;5096068;28;20101;-63
2023/08/01 06:20:36;;;;;;;3.37;1.30;;;;;;;18.49;73.98;98754.19;5096112;28;20044;-63
2023/08/01 06:23:05;;;;;;;0.60;0.60;;;;;;;18.53;73.74;98745.38;5095974;28;20109;-63
2023/08/01 06:25:34;;;;;;;0.73;0.73;;;;;;;18.61;74.06;98751.03;5095983;28;20090;-63
2023/08/01 06:28:02;;;;;;;0.50;0.50;;;;;;;18.65;74.23;98755.13;5096326;28;20288;-63
2023/08/01 06:30:31;;;;;;;0.57;0.57;;;;;;;18.68;74.06;98759.31;5095814;28;20062;-63
2023/08/01 06:33:02;;;;;;;0.95;0.85;;;;;;;18.70;73.86;98758.34;5096091;28;20039;-62
2023/08/01 06:35:31;;;;;;;0.45;0.45;;;;;;;18.74;73.64;98749.50;5095590;28;20048;-63
2023/08/01 06:38:00;;;;;;;0.50;0.50;;;;;;;18.86;73.54;98747.25;5095732;28;20117;-63
2023/08/01 06:40:29;;;;;;;0.70;0.70;;;;;;;18.89;73.74;98741.91;5095786;28;20082;-63
2023/08/01 06:42:58;;;;;;;1.07;1.03;;;;;;;18.92;73.88;98745.19;5095904;28;20036;-63
2023/08/01 06:45:27;;;;;;;0.57;0.57;;;;;;;19.00;73.93;98745.66;5095555;28;20285;-63
2023/08/01 06:47:55;;;;;;;1.07;0.83;;;;;;;19.08;74.46;98742.66;5095409;28;20082;-63
2023/08/01 06:50:26;;;;;;;1.33;0.93;;;;;;;19.10;74.84;98739.09;5095130;28;20044;-63
2023/08/01 06:52:55;;;;;;;0.50;0.50;;;;;;;19.10;74.80;98741.69;5095456;28;20044;-63
2023/08/01 06:55:24;;;;;;;0.70;0.70;;;;;;;19.15;75.35;98738.84;5095354;28;20069;-63
2023/08/01 06:57:53;;;;;;;0.65;0.63;;;;;;;19.18;75.69;98730.94;5095351;28;20135;-63
2023/08/01 07:00:21;;;;;;;0.60;0.60;;;;;;;19.22;76.24;98735.03;5095617;28;20486;-64
2023/08/01 07:02:50;;;;;;;1.33;1.25;;;;;;;19.26;76.16;98734.00;5095787;28;20040;-64
2023/08/01 07:05:19;;;;;;;0.60;0.60;;;;;;;19.33;76.33;98737.94;5095123;28;20036;-64
2023/08/01 07:07:49;;;;;;;0.50;0.50;;;;;;;19.41;76.22;98735.84;5096119;28;20386;-63
2023/08/01 07:10:18;;;;;;;0.68;0.68;;;;;;;19.44;76.52;98730.47;5095119;28;20277;-64
2023/08/01 07:12:47;;;;;;;0.47;0.47;;;;;;;19.53;76.68;98726.59;5094883;28;20052;-62
2023/08/01 07:15:16;;;;;;;0.40;0.40;;;;;;;19.57;76.62;98726.34;5094287;28;20460;-64
2023/08/01 07:17:45;;;;;;;1.63;1.07;;;;;;;19.57;76.77;98721.19;5093791;28;20093;-63
2023/08/01 07:20:14;;;;;;;0.60;0.60;;;;;;;19.65;76.67;98718.19;5095103;28;20543;-63
2023/08/01 07:22:43;;;;;;;0.70;0.70;;;;;;;19.70;76.65;98711.81;5095123;28;20122;-64
2023/08/01 07:25:13;;;;;;;0.80;0.80;;;;;;;19.80;76.42;98709.59;5095078;28;20047;-63
2023/08/01 07:27:42;;;;;;;1.05;0.80;;;;;;;19.88;76.15;98707.44;5094721;28;20105;-63
2023/08/01 07:30:12;;;;;;;0.47;0.47;;;;;;;19.98;76.55;98701.69;5094716;28;20044;-64
2023/08/01 07:32:41;;;;;;;;;;;;;;;20.04;76.31;98696.16;5095143;28;20165;-64
2023/08/01 07:35:11;;;;;;;0.55;0.55;;;;;;;20.12;76.23;98687.13;5093262;28;19920;-64
2023/08/01 07:37:40;;;;;;;0.70;0.70;;;;;;;20.21;75.74;98684.00;5094564;28;20048;-63
2023/08/01 07:40:10;;;;;;;1.40;1.27;;;;;;;20.26;74.90;98684.63;5094634;28;20450;-64
2023/08/01 07:42:40;;;;;;;0.43;0.43;;;;;;;20.30;74.33;98688.75;5095093;28;20028;-64
2023/08/01 07:45:10;;;;;;;0.60;0.60;;;;;;;20.32;73.79;98681.72;5093394;28;20047;-63
2023/08/01 07:47:39;;;;;;;0.40;0.40;;;;;;;20.37;73.49;98687.47;5094265;28;20044;-63
2023/08/01 07:50:08;;;;;;;4.35;2.65;;;;;;;20.41;73.18;98689.81;5094352;28;20047;-64
2023/08/01 07:52:37;;;;;;;0.60;0.60;;;;;;;20.45;72.80;98686.09;5094161;28;20517;-64
2023/08/01 07:55:07;;;;;;;1.23;1.13;;;;;;;20.48;72.70;98679.91;5094507;28;20040;-64
2023/08/01 07:57:36;;;;;;;0.70;0.70;;;;;;;20.47;72.60;98680.81;5094170;28;20058;-63
2023/08/01 08:00:09;;;;;;;8.27;2.23;;;;;;;20.48;72.70;98682.50;5094262;28;20039;-64
2023/08/01 08:02:42;;;;;;;1.10;0.85;;;;;;;20.51;72.67;98679.75;5094229;28;20121;-64
2023/08/01 08:05:12;;;;;;;0.63;0.63;;;;;;;20.52;72.26;98681.41;5094377;28;20505;-64
2023/08/01 08:07:40;;;;;;;0.40;0.40;;;;;;;20.54;72.42;98679.53;5094305;28;20500;-64
2023/08/01 08:10:09;;;;;;;0.80;0.80;;;;;;;20.56;72.21;98672.53;5094353;28;20028;-64
2023/08/01 08:12:38;;;;;;;0.43;0.43;;;;;;;20.57;72.09;98680.22;5094248;28;20398;-62
2023/08/01 08:15:09;;;;;;;0.70;0.70;;;;;;;20.61;72.53;98673.94;5093873;28;20082;-64
2023/08/01 08:17:38;;;;;;;1.60;0.90;;;;;;;20.66;72.93;98678.84;5093906;28;20052;-63
2023/08/01 08:20:08;;;;;;;1.00;0.95;;;;;;;20.65;73.27;98677.19;5094151;28;20040;-64
2023/08/01 08:22:37;;;;;;;1.00;0.90;;;;;;;20.71;73.96;98671.63;5094221;28;20127;-64
2023/08/01 08:25:06;;;;;;;0.43;0.43;;;;;;;20.71;73.50;98682.84;5094087;28;20445;-64
2023/08/01 08:27:35;;;;;;;0.45;0.45;;;;;;;20.75;73.42;98678.34;5093655;28;20375;-63
2023/08/01 08:30:05;;;;;;;1.17;0.70;;;;;;;20.80;73.85;98681.50;5093778;28;20547;-64
2023/08/01 08:32:36;;;;;;;1.40;1.10;;;;;;;20.83;73.54;98689.09;5094300;28;20285;-64
2023/08/01 08:35:06;;;;;;;0.60;0.60;;;;;;;20.85;73.19;98684.63;5093920;28;20467;-64
2023/08/01 08:37:37;;;;;;;0.57;0.57;;;;;;;20.86;72.92;98681.13;5093681;28;20040;-64
2023/08/01 08:40:07;;;;;;;1.50;1.00;;;;;;;20.93;72.60;98681.59;5093705;28;20048;-64
2023/08/01 08:42:36;;;;;;;0.77;0.77;;;;;;;20.98;72.37;98676.97;5093732;28;20119;-64
2023/08/01 08:45:07;;;;;;;0.60;0.60;;;;;;;21.06;72.61;98677.41;5093618;28;20507;-64
2023/08/01 08:47:41;;;;;;;0.55;0.55;;;;;;;21.11;72.00;98665.00;5093590;28;20056;-64
2023/08/01 08:50:12;;;;;;;0.50;0.50;;;;;;;21.15;71.54;98664.72;5093580;28;20044;-64
2023/08/01 08:52:41;;;;;;;2.22;1.15;;;;;;;21.17;71.49;98675.00;5093487;28;20512;-64
2023/08/01 08:55:10;;;;;;;0.55;0.55;;;;;;;21.14;71.40;98668.22;5093512;28;20058;-64
2023/08/01 08:57:40;;;;;;;0.50;0.50;;;;;;;21.13;71.47;98666.56;5093718;28;20405;-63
2023/08/01 09:00:10;;;;;;;0.80;0.80;;;;;;;21.15;71.35;98664.72;5093443;28;20050;-63
2023/08/01 09:02:40;;;;;;;1.20;0.80;;;;;;;21.17;71.40;98664.63;5093990;28;20043;-64
2023/08/01 09:05:09;;;;;;;1.40;1.05;;;;;;;21.17;71.64;98675.00;5093371;28;20249;-64
2023/08/01 09:07:43;;;;;;;0.40;0.40;;;;;;;21.17;71.98;98668.06;5093676;28;20409;-64
2023/08/01 09:10:12;;;;;;;1.10;0.52;;;;;;;21.13;72.47;98683.91;5093374;28;20076;-64
2023/08/01 09:12:41;;;;;;;0.70;0.70;;;;;;;21.09;72.62;98685.81;5092162;28;20066;-63
2023/08/01 09:15:11;;;;;;;0.82;0.57;;;;;;;21.07;73.16;98685.09;5093548;28;20059;-64
2023/08/01 09:17:51;;;;;;;0.70;0.70;;;;;;;21.01;73.37;98685.44;5092139;28;20040;-63
2023/08/01 09:20:20;;;;;;;1.42;1.27;;;;;;;20.99;73.84;98682.09;5093267;28;20052;-64
2023/08/01 09:22:48;;;;;;;0.52;0.52;;;;;;;20.96;73.82;98684.03;5093227;28;20390;-64
2023/08/01 09:25:17;;;;;;;0.55;0.50;;;;;;;20.90;74.24;98687.81;5093512;28;20047;-64
2023/08/01 09:27:46;;;;;;;0.65;0.65;;;;;;;20.80;74.82;98673.72;5093059;28;20040;-63
2023/08/01 09:30:17;;;;;;;1.65;0.90;;;;;;;20.69;75.00;98678.69;5093167;28;20093;-63
2023/08/01 09:32:54;;;;;;;0.52;0.52;;;;;;;20.65;75.28;98687.56;5093147;28;20052;-64
2023/08/01 09:35:23;;;;;;;0.90;0.90;;;;;;;20.63;75.40;98676.47;5093150;28;20054;-64
2023/08/01 09:37:52;;;;;;;0.60;0.60;;;;;;;20.64;75.58;98665.13;5093524;28;20040;-64
2023/08/01 09:40:21;;;;;;;0.60;0.60;;;;;;;20.64;75.47;98665.13;5096801;28;20043;-64
2023/08/01 09:42:50;;;;;;;1.77;1.08;;;;;;;20.60;75.55;98658.47;5097136;28;20123;-64
2023/08/01 09:45:19;;;;;;;2.65;1.50;;;;;;;20.61;75.77;98680.91;5097038;28;20115;-64
2023/08/01 09:47:48;;;;;;;1.75;1.42;;;;;;;20.61;75.97;98688.69;5095748;28;20106;-63
2023/08/01 09:50:24;;;;;;;3.90;2.05;;;;;;;20.58;76.99;98681.06;5096875;28;20050;-64
2023/08/01 09:52:53;;;;;;;1.85;1.65;;;;;;;20.52;78.02;98681.41;5096623;28;20567;-65
2023/08/01 09:55:28;;;;;;;1.50;1.27;;;;;;;20.45;79.15;98675.75;5095386;28;20050;-64
2023/08/01 09:57:59;;;;;;;0.60;0.60;;;;;;;20.39;80.12;98675.25;5097100;28;20180;-64
2023/08/01 10:00:29;;;;;;;0.95;0.85;;;;;;;20.34;81.08;98677.28;5096587;28;20405;-64
2023/08/01 10:03:01;;;;;;;1.50;1.30;;;;;;;20.28;82.16;98672.41;5096912;28;20056;-63
2023/08/01 10:05:34;;;;;;;1.13;1.00;;;;;;;20.23;83.05;98674.47;5096543;28;20036;-65
2023/08/01 10:08:04;;;;;;;0.57;0.57;;;;;;;20.23;83.48;98670.09;5096479;28;20127;-65
2023/08/01 10:10:33;;;;;;;1.05;1.00;;;;;;;20.14;84.05;98678.34;5096383;28;20049;-64
2023/08/01 10:13:03;;;;;;;1.33;1.23;;;;;;;20.12;84.67;98685.38;5096224;28;20114;-65
2023/08/01 10:15:32;;;;;;;1.17;1.08;;;;;;;19.99;85.40;98698.16;5096094;28;20071;-64
2023/08/01 10:18:02;;;;;;;1.13;1.02;;;;;;;19.84;86.27;98703.34;5094908;28;20052;-65
2023/08/01 10:20:35;;;;;;;1.42;0.55;;;;;;;19.69;87.12;98704.16;5096328;28;20414;-64
2023/08/01 10:23:05;;;;;;;1.02;0.93;;;;;;;19.59;88.03;98698.63;5096460;28;20486;-64
2023/08/01 10:25:34;;;;;;;0.82;0.82;;;;;;;19.64;88.56;98681.09;5096591;28;20392;-64
2023/08/01 10:28:04;;;;;;;1.05;0.95;;;;;;;19.73;88.80;98690.13;5095761;28;20044;-64
2023/08/01 10:30:33;;;;;;;1.65;1.25;;;;;;;19.77;88.60;98687.28;5094706;28;20048;-65
2023/08/01 10:33:02;;;;;;;1.27;1.10;;;;;;;19.82;88.96;98679.28;5095731;28;20036;-65
2023/08/01 10:35:37;;;;;;;3.92;1.20;;;;;;;19.82;88.76;98679.28;5094622;28;20131;-64
2023/08/01 10:38:07;;;;;;;0.52;0.52;;;;;;;19.75;89.05;98678.75;5095802;28;20048;-64
2023/08/01 10:40:37;;;;;;;1.23;1.00;;;;;;;19.77;89.27;98686.47;5096074;28;20044;-64
2023/08/01 10:43:07;;;;;;;0.88;0.82;;;;;;;19.75;89.18;98689.13;5095687;28;20044;-65
2023/08/01 10:45:36;;;;;;;1.05;0.82;;;;;;;19.71;89.44;98676.41;5095887;28;20486;-65
2023/08/01 10:48:08;;;;;;;0.77;0.77;;;;;;;19.78;89.67;98672.59;5094565;28;20048;-65
2023/08/01 10:50:39;;;;;;;0.90;0.82;;;;;;;19.85;89.69;98674.75;5095322;28;20048;-64
2023/08/01 10:53:10;;;;;;;0.65;0.65;;;;;;;19.85;89.56;98679.94;5096463;28;20042;-64
2023/08/01 10:55:41;;;;;;;1.13;0.85;;;;;;;19.85;89.34;98674.75;5095415;28;20517;-64
2023/08/01 10:58:10;;;;;;;0.82;0.80;;;;;;;19.83;89.65;98689.56;5095416;28;20127;-64
2023/08/01 11:00:40;;;;;;;0.63;0.60;;;;;;;19.82;89.26;98680.09;5094378;28;20047;-64
2023/08/01 11:03:09;;;;;;;0.82;0.82;;;;;;;19.85;88.99;98677.34;5096039;28;20086;-64
2023/08/01 11:05:39;;;;;;;0.95;0.90;;;;;;;19.94;88.81;98689.78;5095585;28;20054;-64
2023/08/01 11:08:08;;;;;;;0.40;0.40;;;;;;;19.98;88.85;98698.25;5095606;28;20055;-64
2023/08/01 11:10:37;;;;;;;0.80;0.70;;;;;;;19.86;88.57;98701.50;5095150;28;20043;-64
2023/08/01 11:13:06;;;;;;;0.50;0.50;;;;;;;19.82;88.29;98700.81;5095019;28;20850;-63
2023/08/01 11:15:38;;;;;;;0.83;0.83;;;;;;;19.82;87.65;98692.25;5095039;28;20040;-64
2023/08/01 11:18:10;;;;;;;3.60;1.60;;;;;;;19.87;87.38;98685.88;5095240;28;20397;-64
2023/08/01 11:20:41;;;;;;;1.05;0.77;;;;;;;19.94;86.82;98674.25;5095444;28;20044;-64
2023/08/01 11:23:11;;;;;;;0.82;0.82;;;;;;;20.04;86.67;98675.44;5095242;28;20036;-64
2023/08/01 11:25:43;;;;;;;0.60;0.60;;;;;;;20.10;86.34;98671.66;5094792;28;20105;-64
2023/08/01 11:28:13;;;;;;;0.52;0.52;;;;;;;20.12;86.20;98671.56;5094693;28;20051;-64
2023/08/01 11:30:42;;;;;;;0.80;0.80;;;;;;;20.12;86.11;98666.41;5094716;28;20138;-64
2023/08/01 11:33:15;;;;;;;0.85;0.85;;;;;;;20.10;86.41;98663.91;5095044;28;20494;-64
2023/08/01 11:35:46;;;;;;;0.93;0.90;;;;;;;20.15;86.52;98655.88;5094575;28;20051;-64
2023/08/01 11:38:15;;;;;;;0.98;0.98;;;;;;;20.15;86.57;98650.69;5094573;28;20068;-63
2023/08/01 11:40:44;;;;;;;1.30;1.20;;;;;;;20.16;86.43;98649.75;5094507;28;20044;-65
2023/08/01 11:43:12;;;;;;;1.98;1.45;;;;;;;20.20;86.11;98648.69;5094442;28;20364;-65
2023/08/01 11:45:50;;;;;;;3.50;0.77;;;;;;;20.32;86.12;98653.19;5094428;28;20510;-65